CPX249 Details

Departure: Miami International Airport (KMIA)
Arrival: Theodore Francis Green State Airport (KPVD) at N/A
Route: VALLY2 VALLY WOLFO AR18 OZENA AR18 DIW J174 HTO JORDN2
Notes:


Current Weather Information
KMIA 250353Z 21004KT 10SM FEW030 FEW250 28/25 A2995 RMK AO2 SLP140 T02830250
KPVD 250351Z 03007KT 10SM CLR 16/14 A3029 RMK AO2 SLP256 LAST T01610139